sensor_id;sensor_type;location;lat;lon;timestamp;P1;durP1;ratioP1;P2;durP2;ratioP2
46355;SDS011;32066;49.474;11.106;2022-12-15T00:00:03;35.45;;;21.23;;
46355;SDS011;32066;49.474;11.106;2022-12-15T00:02:48;36.33;;;20.60;;
46355;SDS011;32066;49.474;11.106;2022-12-15T00:05:34;33.38;;;19.55;;
46355;SDS011;32066;49.474;11.106;2022-12-15T00:08:18;34.78;;;20.45;;
46355;SDS011;32066;49.474;11.106;2022-12-15T00:11:02;32.83;;;20.35;;
46355;SDS011;32066;49.474;11.106;2022-12-15T00:13:47;31.15;;;19.50;;
46355;SDS011;32066;49.474;11.106;2022-12-15T00:16:31;33.20;;;19.05;;
46355;SDS011;32066;49.474;11.106;2022-12-15T00:19:15;35.88;;;20.13;;
46355;SDS011;32066;49.474;11.106;2022-12-15T00:22:01;34.60;;;20.65;;
46355;SDS011;32066;49.474;11.106;2022-12-15T00:24:46;32.20;;;20.42;;
46355;SDS011;32066;49.474;11.106;2022-12-15T00:27:31;34.35;;;19.55;;
46355;SDS011;32066;49.474;11.106;2022-12-15T00:30:15;30.63;;;18.50;;
46355;SDS011;32066;49.474;11.106;2022-12-15T00:32:59;33.17;;;18.80;;
46355;SDS011;32066;49.474;11.106;2022-12-15T00:35:50;30.42;;;18.05;;
46355;SDS011;32066;49.474;11.106;2022-12-15T00:38:36;30.70;;;19.10;;
46355;SDS011;32066;49.474;11.106;2022-12-15T00:41:07;35.58;;;20.92;;
46355;SDS011;32066;49.474;11.106;2022-12-15T00:43:34;31.92;;;18.95;;
46355;SDS011;32066;49.474;11.106;2022-12-15T00:46:01;33.13;;;20.55;;
46355;SDS011;32066;49.474;11.106;2022-12-15T00:48:46;32.00;;;19.35;;
46355;SDS011;32066;49.474;11.106;2022-12-15T00:51:14;31.48;;;19.35;;
46355;SDS011;32066;49.474;11.106;2022-12-15T00:53:42;33.67;;;19.80;;
46355;SDS011;32066;49.474;11.106;2022-12-15T00:56:27;34.38;;;19.77;;
46355;SDS011;32066;49.474;11.106;2022-12-15T00:59:12;32.80;;;19.23;;
46355;SDS011;32066;49.474;11.106;2022-12-15T01:01:56;32.75;;;18.92;;
46355;SDS011;32066;49.474;11.106;2022-12-15T01:04:40;32.28;;;18.98;;
46355;SDS011;32066;49.474;11.106;2022-12-15T01:07:24;33.22;;;19.15;;
46355;SDS011;32066;49.474;11.106;2022-12-15T01:10:11;32.22;;;19.17;;
46355;SDS011;32066;49.474;11.106;2022-12-15T01:15:40;29.17;;;17.42;;
46355;SDS011;32066;49.474;11.106;2022-12-15T01:18:24;31.42;;;19.55;;
46355;SDS011;32066;49.474;11.106;2022-12-15T01:21:09;32.17;;;19.58;;
46355;SDS011;32066;49.474;11.106;2022-12-15T01:23:37;34.75;;;20.05;;
46355;SDS011;32066;49.474;11.106;2022-12-15T01:26:07;30.05;;;19.63;;
46355;SDS011;32066;49.474;11.106;2022-12-15T01:28:34;32.17;;;20.13;;
46355;SDS011;32066;49.474;11.106;2022-12-15T01:31:01;34.22;;;19.92;;
46355;SDS011;32066;49.474;11.106;2022-12-15T01:33:33;35.05;;;19.92;;
46355;SDS011;32066;49.474;11.106;2022-12-15T01:36:00;32.83;;;19.67;;
46355;SDS011;32066;49.474;11.106;2022-12-15T01:38:27;32.35;;;20.13;;
46355;SDS011;32066;49.474;11.106;2022-12-15T01:40:55;35.72;;;21.70;;
46355;SDS011;32066;49.474;11.106;2022-12-15T01:43:25;34.47;;;21.17;;
46355;SDS011;32066;49.474;11.106;2022-12-15T01:45:55;35.35;;;21.15;;
46355;SDS011;32066;49.474;11.106;2022-12-15T01:48:27;33.80;;;20.65;;
46355;SDS011;32066;49.474;11.106;2022-12-15T01:50:59;32.55;;;20.40;;
46355;SDS011;32066;49.474;11.106;2022-12-15T01:53:32;31.60;;;19.63;;
46355;SDS011;32066;49.474;11.106;2022-12-15T01:56:04;34.15;;;20.55;;
46355;SDS011;32066;49.474;11.106;2022-12-15T01:58:34;33.50;;;20.65;;
46355;SDS011;32066;49.474;11.106;2022-12-15T02:01:03;33.83;;;20.60;;
46355;SDS011;32066;49.474;11.106;2022-12-15T02:03:30;34.60;;;20.75;;
46355;SDS011;32066;49.474;11.106;2022-12-15T02:05:58;36.30;;;21.50;;
46355;SDS011;32066;49.474;11.106;2022-12-15T02:08:26;34.30;;;20.70;;
46355;SDS011;32066;49.474;11.106;2022-12-15T02:13:57;34.40;;;20.98;;
46355;SDS011;32066;49.474;11.106;2022-12-15T02:16:27;36.42;;;22.35;;
46355;SDS011;32066;49.474;11.106;2022-12-15T02:19:07;35.58;;;21.20;;
46355;SDS011;32066;49.474;11.106;2022-12-15T02:22:17;34.60;;;20.80;;
46355;SDS011;32066;49.474;11.106;2022-12-15T02:24:58;36.88;;;21.95;;
46355;SDS011;32066;49.474;11.106;2022-12-15T02:27:48;38.22;;;22.20;;
46355;SDS011;32066;49.474;11.106;2022-12-15T02:30:21;39.00;;;22.17;;
46355;SDS011;32066;49.474;11.106;2022-12-15T02:32:56;35.50;;;21.88;;
46355;SDS011;32066;49.474;11.106;2022-12-15T02:35:29;36.58;;;21.77;;
46355;SDS011;32066;49.474;11.106;2022-12-15T02:38:02;40.22;;;21.98;;
46355;SDS011;32066;49.474;11.106;2022-12-15T02:40:29;41.25;;;22.48;;
46355;SDS011;32066;49.474;11.106;2022-12-15T02:42:56;36.90;;;21.80;;
46355;SDS011;32066;49.474;11.106;2022-12-15T02:45:33;37.90;;;23.55;;
46355;SDS011;32066;49.474;11.106;2022-12-15T02:50:44;40.65;;;21.98;;
46355;SDS011;32066;49.474;11.106;2022-12-15T02:53:20;41.08;;;22.73;;
46355;SDS011;32066;49.474;11.106;2022-12-15T02:55:59;41.58;;;24.98;;
46355;SDS011;32066;49.474;11.106;2022-12-15T02:58:34;38.38;;;22.85;;
46355;SDS011;32066;49.474;11.106;2022-12-15T03:01:07;40.88;;;22.75;;
46355;SDS011;32066;49.474;11.106;2022-12-15T03:03:37;41.17;;;23.52;;
46355;SDS011;32066;49.474;11.106;2022-12-15T03:06:05;40.10;;;23.30;;
46355;SDS011;32066;49.474;11.106;2022-12-15T03:08:32;40.60;;;23.85;;
46355;SDS011;32066;49.474;11.106;2022-12-15T03:10:58;42.20;;;22.98;;
46355;SDS011;32066;49.474;11.106;2022-12-15T03:13:26;38.20;;;24.05;;
46355;SDS011;32066;49.474;11.106;2022-12-15T03:15:53;38.47;;;22.08;;
46355;SDS011;32066;49.474;11.106;2022-12-15T03:18:23;39.45;;;22.83;;
46355;SDS011;32066;49.474;11.106;2022-12-15T03:20:50;38.83;;;22.42;;
46355;SDS011;32066;49.474;11.106;2022-12-15T03:23:17;39.67;;;22.35;;
46355;SDS011;32066;49.474;11.106;2022-12-15T03:25:47;38.25;;;22.20;;
46355;SDS011;32066;49.474;11.106;2022-12-15T03:28:14;36.72;;;22.65;;
46355;SDS011;32066;49.474;11.106;2022-12-15T03:30:42;38.25;;;22.98;;
46355;SDS011;32066;49.474;11.106;2022-12-15T03:33:10;37.45;;;22.42;;
46355;SDS011;32066;49.474;11.106;2022-12-15T03:35:38;39.58;;;23.02;;
46355;SDS011;32066;49.474;11.106;2022-12-15T03:38:05;36.42;;;22.42;;
46355;SDS011;32066;49.474;11.106;2022-12-15T03:40:32;36.95;;;22.33;;
46355;SDS011;32066;49.474;11.106;2022-12-15T03:42:59;37.25;;;21.88;;
46355;SDS011;32066;49.474;11.106;2022-12-15T03:45:26;38.90;;;23.05;;
46355;SDS011;32066;49.474;11.106;2022-12-15T03:47:54;40.25;;;23.17;;
46355;SDS011;32066;49.474;11.106;2022-12-15T03:50:22;38.83;;;23.30;;
46355;SDS011;32066;49.474;11.106;2022-12-15T03:52:52;39.60;;;22.70;;
46355;SDS011;32066;49.474;11.106;2022-12-15T03:55:20;36.75;;;22.13;;
46355;SDS011;32066;49.474;11.106;2022-12-15T03:57:47;37.95;;;22.10;;
46355;SDS011;32066;49.474;11.106;2022-12-15T04:00:14;40.42;;;23.35;;
46355;SDS011;32066;49.474;11.106;2022-12-15T04:02:42;38.63;;;22.40;;
46355;SDS011;32066;49.474;11.106;2022-12-15T04:05:11;44.20;;;22.40;;
46355;SDS011;32066;49.474;11.106;2022-12-15T04:07:40;35.70;;;21.38;;
46355;SDS011;32066;49.474;11.106;2022-12-15T04:10:09;39.30;;;22.92;;
46355;SDS011;32066;49.474;11.106;2022-12-15T04:12:36;36.58;;;21.35;;
46355;SDS011;32066;49.474;11.106;2022-12-15T04:15:04;38.22;;;22.77;;
46355;SDS011;32066;49.474;11.106;2022-12-15T04:17:32;36.50;;;21.77;;
46355;SDS011;32066;49.474;11.106;2022-12-15T04:19:59;40.17;;;22.85;;
46355;SDS011;32066;49.474;11.106;2022-12-15T04:22:35;37.07;;;21.43;;
46355;SDS011;32066;49.474;11.106;2022-12-15T04:25:02;38.20;;;22.42;;
46355;SDS011;32066;49.474;11.106;2022-12-15T04:27:49;35.67;;;21.42;;
46355;SDS011;32066;49.474;11.106;2022-12-15T04:30:33;35.57;;;20.97;;
46355;SDS011;32066;49.474;11.106;2022-12-15T04:33:17;38.92;;;21.00;;
46355;SDS011;32066;49.474;11.106;2022-12-15T04:36:03;37.57;;;21.93;;
46355;SDS011;32066;49.474;11.106;2022-12-15T04:38:48;32.88;;;20.00;;
46355;SDS011;32066;49.474;11.106;2022-12-15T04:41:32;37.92;;;22.08;;
46355;SDS011;32066;49.474;11.106;2022-12-15T04:44:19;34.80;;;20.65;;
46355;SDS011;32066;49.474;11.106;2022-12-15T04:47:03;34.40;;;20.55;;
46355;SDS011;32066;49.474;11.106;2022-12-15T04:49:47;34.97;;;19.75;;
46355;SDS011;32066;49.474;11.106;2022-12-15T04:52:32;36.35;;;20.33;;
46355;SDS011;32066;49.474;11.106;2022-12-15T04:55:16;35.17;;;20.92;;
46355;SDS011;32066;49.474;11.106;2022-12-15T04:58:03;35.60;;;20.75;;
46355;SDS011;32066;49.474;11.106;2022-12-15T05:00:50;37.78;;;21.35;;
46355;SDS011;32066;49.474;11.106;2022-12-15T05:03:34;36.03;;;21.15;;
46355;SDS011;32066;49.474;11.106;2022-12-15T05:06:19;37.97;;;21.55;;
46355;SDS011;32066;49.474;11.106;2022-12-15T05:09:03;35.10;;;21.17;;
46355;SDS011;32066;49.474;11.106;2022-12-15T05:11:48;37.85;;;22.23;;
46355;SDS011;32066;49.474;11.106;2022-12-15T05:14:32;37.75;;;21.67;;
46355;SDS011;32066;49.474;11.106;2022-12-15T05:17:18;36.47;;;21.27;;
46355;SDS011;32066;49.474;11.106;2022-12-15T05:20:02;39.90;;;21.90;;
46355;SDS011;32066;49.474;11.106;2022-12-15T05:22:51;35.95;;;21.40;;
46355;SDS011;32066;49.474;11.106;2022-12-15T05:25:36;38.55;;;21.45;;
46355;SDS011;32066;49.474;11.106;2022-12-15T05:28:21;38.65;;;23.13;;
46355;SDS011;32066;49.474;11.106;2022-12-15T05:31:05;38.78;;;22.30;;
46355;SDS011;32066;49.474;11.106;2022-12-15T05:33:52;37.42;;;21.02;;
46355;SDS011;32066;49.474;11.106;2022-12-15T05:36:19;36.65;;;22.30;;
46355;SDS011;32066;49.474;11.106;2022-12-15T05:38:46;39.40;;;22.52;;
46355;SDS011;32066;49.474;11.106;2022-12-15T05:41:15;39.05;;;22.65;;
46355;SDS011;32066;49.474;11.106;2022-12-15T05:43:43;39.03;;;22.58;;
46355;SDS011;32066;49.474;11.106;2022-12-15T05:46:12;39.20;;;22.77;;
46355;SDS011;32066;49.474;11.106;2022-12-15T05:48:39;37.45;;;22.33;;
46355;SDS011;32066;49.474;11.106;2022-12-15T05:51:08;35.97;;;21.75;;
46355;SDS011;32066;49.474;11.106;2022-12-15T05:53:37;38.55;;;22.40;;
46355;SDS011;32066;49.474;11.106;2022-12-15T05:56:06;42.45;;;24.42;;
46355;SDS011;32066;49.474;11.106;2022-12-15T05:58:34;40.42;;;23.23;;
46355;SDS011;32066;49.474;11.106;2022-12-15T06:01:02;37.15;;;21.95;;
46355;SDS011;32066;49.474;11.106;2022-12-15T06:03:30;36.92;;;22.00;;
46355;SDS011;32066;49.474;11.106;2022-12-15T06:05:57;36.35;;;20.70;;
46355;SDS011;32066;49.474;11.106;2022-12-15T06:08:26;40.05;;;23.38;;
46355;SDS011;32066;49.474;11.106;2022-12-15T06:10:54;39.45;;;22.73;;
46355;SDS011;32066;49.474;11.106;2022-12-15T06:13:21;38.67;;;22.45;;
46355;SDS011;32066;49.474;11.106;2022-12-15T06:15:55;38.80;;;23.27;;
46355;SDS011;32066;49.474;11.106;2022-12-15T06:18:23;38.45;;;22.85;;
46355;SDS011;32066;49.474;11.106;2022-12-15T06:20:55;38.65;;;21.67;;
46355;SDS011;32066;49.474;11.106;2022-12-15T06:23:23;39.25;;;21.80;;
46355;SDS011;32066;49.474;11.106;2022-12-15T06:25:52;41.00;;;22.88;;
46355;SDS011;32066;49.474;11.106;2022-12-15T06:28:20;39.83;;;23.13;;
46355;SDS011;32066;49.474;11.106;2022-12-15T06:30:48;38.58;;;22.70;;
46355;SDS011;32066;49.474;11.106;2022-12-15T06:33:19;36.92;;;21.90;;
46355;SDS011;32066;49.474;11.106;2022-12-15T06:35:47;41.40;;;22.67;;
46355;SDS011;32066;49.474;11.106;2022-12-15T06:38:14;39.50;;;22.83;;
46355;SDS011;32066;49.474;11.106;2022-12-15T06:40:43;42.25;;;23.20;;
46355;SDS011;32066;49.474;11.106;2022-12-15T06:43:09;38.40;;;21.92;;
46355;SDS011;32066;49.474;11.106;2022-12-15T06:45:36;40.47;;;21.92;;
46355;SDS011;32066;49.474;11.106;2022-12-15T06:48:03;37.05;;;22.58;;
46355;SDS011;32066;49.474;11.106;2022-12-15T06:50:31;36.30;;;22.35;;
46355;SDS011;32066;49.474;11.106;2022-12-15T06:52:59;36.22;;;22.30;;
46355;SDS011;32066;49.474;11.106;2022-12-15T06:55:26;38.65;;;22.13;;
46355;SDS011;32066;49.474;11.106;2022-12-15T06:57:54;38.53;;;22.08;;
46355;SDS011;32066;49.474;11.106;2022-12-15T07:00:21;40.45;;;23.60;;
46355;SDS011;32066;49.474;11.106;2022-12-15T07:02:48;34.67;;;20.73;;
46355;SDS011;32066;49.474;11.106;2022-12-15T07:05:15;38.28;;;21.92;;
46355;SDS011;32066;49.474;11.106;2022-12-15T07:07:42;39.33;;;22.63;;
46355;SDS011;32066;49.474;11.106;2022-12-15T07:10:09;43.78;;;24.63;;
46355;SDS011;32066;49.474;11.106;2022-12-15T07:12:36;37.08;;;21.50;;
46355;SDS011;32066;49.474;11.106;2022-12-15T07:15:04;41.10;;;22.45;;
46355;SDS011;32066;49.474;11.106;2022-12-15T07:17:33;35.95;;;22.13;;
46355;SDS011;32066;49.474;11.106;2022-12-15T07:20:01;38.20;;;22.60;;
46355;SDS011;32066;49.474;11.106;2022-12-15T07:22:29;41.28;;;22.48;;
46355;SDS011;32066;49.474;11.106;2022-12-15T07:24:56;36.95;;;22.05;;
46355;SDS011;32066;49.474;11.106;2022-12-15T07:27:22;40.97;;;23.08;;
46355;SDS011;32066;49.474;11.106;2022-12-15T07:29:49;37.75;;;22.85;;
46355;SDS011;32066;49.474;11.106;2022-12-15T07:32:18;36.63;;;21.33;;
46355;SDS011;32066;49.474;11.106;2022-12-15T07:34:45;35.05;;;21.23;;
46355;SDS011;32066;49.474;11.106;2022-12-15T07:37:12;36.78;;;22.50;;
46355;SDS011;32066;49.474;11.106;2022-12-15T07:39:40;38.08;;;21.98;;
46355;SDS011;32066;49.474;11.106;2022-12-15T07:42:07;42.00;;;24.10;;
46355;SDS011;32066;49.474;11.106;2022-12-15T07:44:34;36.28;;;21.35;;
46355;SDS011;32066;49.474;11.106;2022-12-15T07:47:00;38.03;;;21.92;;
46355;SDS011;32066;49.474;11.106;2022-12-15T07:49:28;37.60;;;22.05;;
46355;SDS011;32066;49.474;11.106;2022-12-15T07:51:55;38.00;;;21.67;;
46355;SDS011;32066;49.474;11.106;2022-12-15T07:54:22;39.50;;;22.75;;
46355;SDS011;32066;49.474;11.106;2022-12-15T07:56:49;38.45;;;22.55;;
46355;SDS011;32066;49.474;11.106;2022-12-15T07:59:16;40.83;;;22.75;;
46355;SDS011;32066;49.474;11.106;2022-12-15T08:01:43;41.60;;;23.08;;
46355;SDS011;32066;49.474;11.106;2022-12-15T08:04:10;38.08;;;22.08;;
46355;SDS011;32066;49.474;11.106;2022-12-15T08:06:38;36.38;;;20.92;;
46355;SDS011;32066;49.474;11.106;2022-12-15T08:09:05;40.10;;;22.45;;
46355;SDS011;32066;49.474;11.106;2022-12-15T08:11:32;35.92;;;22.63;;
46355;SDS011;32066;49.474;11.106;2022-12-15T08:13:59;46.40;;;23.10;;
46355;SDS011;32066;49.474;11.106;2022-12-15T08:16:26;37.58;;;22.02;;
46355;SDS011;32066;49.474;11.106;2022-12-15T08:18:54;43.25;;;22.70;;
46355;SDS011;32066;49.474;11.106;2022-12-15T08:21:22;37.72;;;22.15;;
46355;SDS011;32066;49.474;11.106;2022-12-15T08:23:50;39.63;;;22.95;;
46355;SDS011;32066;49.474;11.106;2022-12-15T08:26:17;38.65;;;21.65;;
46355;SDS011;32066;49.474;11.106;2022-12-15T08:28:44;40.80;;;22.50;;
46355;SDS011;32066;49.474;11.106;2022-12-15T08:31:13;40.92;;;22.88;;
46355;SDS011;32066;49.474;11.106;2022-12-15T08:33:40;38.83;;;22.92;;
46355;SDS011;32066;49.474;11.106;2022-12-15T08:36:08;39.22;;;23.05;;
46355;SDS011;32066;49.474;11.106;2022-12-15T08:38:38;40.03;;;23.10;;
46355;SDS011;32066;49.474;11.106;2022-12-15T08:41:07;43.05;;;24.63;;
46355;SDS011;32066;49.474;11.106;2022-12-15T08:43:35;41.25;;;22.63;;
46355;SDS011;32066;49.474;11.106;2022-12-15T08:46:03;42.45;;;24.05;;
46355;SDS011;32066;49.474;11.106;2022-12-15T08:48:30;44.55;;;23.80;;
46355;SDS011;32066;49.474;11.106;2022-12-15T08:50:57;38.65;;;22.40;;
46355;SDS011;32066;49.474;11.106;2022-12-15T08:53:24;41.95;;;23.38;;
46355;SDS011;32066;49.474;11.106;2022-12-15T08:55:51;40.83;;;24.00;;
46355;SDS011;32066;49.474;11.106;2022-12-15T08:58:19;43.67;;;24.25;;
46355;SDS011;32066;49.474;11.106;2022-12-15T09:00:46;43.65;;;24.55;;
46355;SDS011;32066;49.474;11.106;2022-12-15T09:03:13;38.63;;;22.73;;
46355;SDS011;32066;49.474;11.106;2022-12-15T09:05:40;40.65;;;23.95;;
46355;SDS011;32066;49.474;11.106;2022-12-15T09:08:07;42.95;;;23.25;;
46355;SDS011;32066;49.474;11.106;2022-12-15T09:10:33;42.38;;;23.73;;
46355;SDS011;32066;49.474;11.106;2022-12-15T09:13:04;42.72;;;24.70;;
46355;SDS011;32066;49.474;11.106;2022-12-15T09:15:32;42.17;;;24.08;;
46355;SDS011;32066;49.474;11.106;2022-12-15T09:17:59;40.90;;;25.02;;
46355;SDS011;32066;49.474;11.106;2022-12-15T09:20:27;40.78;;;24.13;;
46355;SDS011;32066;49.474;11.106;2022-12-15T09:22:54;43.80;;;25.05;;
46355;SDS011;32066;49.474;11.106;2022-12-15T09:25:23;44.03;;;24.42;;
46355;SDS011;32066;49.474;11.106;2022-12-15T09:27:49;42.47;;;24.60;;
46355;SDS011;32066;49.474;11.106;2022-12-15T09:30:16;42.50;;;24.00;;
46355;SDS011;32066;49.474;11.106;2022-12-15T09:32:45;43.85;;;24.92;;
46355;SDS011;32066;49.474;11.106;2022-12-15T09:35:11;39.58;;;24.05;;
46355;SDS011;32066;49.474;11.106;2022-12-15T09:37:38;43.70;;;25.17;;
46355;SDS011;32066;49.474;11.106;2022-12-15T09:40:06;44.00;;;25.65;;
46355;SDS011;32066;49.474;11.106;2022-12-15T09:42:35;43.15;;;25.35;;
46355;SDS011;32066;49.474;11.106;2022-12-15T09:45:03;42.40;;;25.27;;
46355;SDS011;32066;49.474;11.106;2022-12-15T09:47:36;44.63;;;26.25;;
46355;SDS011;32066;49.474;11.106;2022-12-15T09:50:10;43.72;;;25.25;;
46355;SDS011;32066;49.474;11.106;2022-12-15T09:52:42;44.30;;;25.30;;
46355;SDS011;32066;49.474;11.106;2022-12-15T09:55:17;45.58;;;26.90;;
46355;SDS011;32066;49.474;11.106;2022-12-15T09:57:47;43.95;;;25.92;;
46355;SDS011;32066;49.474;11.106;2022-12-15T10:00:18;45.72;;;26.63;;
46355;SDS011;32066;49.474;11.106;2022-12-15T10:08:40;50.15;;;26.67;;
46355;SDS011;32066;49.474;11.106;2022-12-15T10:11:21;42.38;;;25.65;;
46355;SDS011;32066;49.474;11.106;2022-12-15T10:13:58;45.50;;;25.67;;
46355;SDS011;32066;49.474;11.106;2022-12-15T10:16:33;42.88;;;24.38;;
46355;SDS011;32066;49.474;11.106;2022-12-15T10:19:07;46.42;;;25.60;;
46355;SDS011;32066;49.474;11.106;2022-12-15T10:21:40;48.70;;;26.15;;
46355;SDS011;32066;49.474;11.106;2022-12-15T10:24:11;44.63;;;25.15;;
46355;SDS011;32066;49.474;11.106;2022-12-15T10:26:42;42.20;;;24.17;;
46355;SDS011;32066;49.474;11.106;2022-12-15T10:29:20;44.38;;;25.80;;
46355;SDS011;32066;49.474;11.106;2022-12-15T10:31:53;41.88;;;24.80;;
46355;SDS011;32066;49.474;11.106;2022-12-15T10:34:25;41.67;;;24.80;;
46355;SDS011;32066;49.474;11.106;2022-12-15T10:36:55;43.28;;;24.27;;
46355;SDS011;32066;49.474;11.106;2022-12-15T10:39:22;41.80;;;24.80;;
46355;SDS011;32066;49.474;11.106;2022-12-15T10:42:08;43.40;;;24.60;;
46355;SDS011;32066;49.474;11.106;2022-12-15T10:44:38;42.67;;;25.88;;
46355;SDS011;32066;49.474;11.106;2022-12-15T10:47:10;45.65;;;25.90;;
46355;SDS011;32066;49.474;11.106;2022-12-15T10:49:40;41.05;;;24.33;;
46355;SDS011;32066;49.474;11.106;2022-12-15T10:52:13;43.55;;;25.15;;
46355;SDS011;32066;49.474;11.106;2022-12-15T10:54:47;41.40;;;24.75;;
46355;SDS011;32066;49.474;11.106;2022-12-15T10:57:16;41.67;;;23.90;;
46355;SDS011;32066;49.474;11.106;2022-12-15T10:59:46;44.05;;;25.23;;
46355;SDS011;32066;49.474;11.106;2022-12-15T11:02:23;42.05;;;24.85;;
46355;SDS011;32066;49.474;11.106;2022-12-15T11:04:56;41.10;;;24.77;;
46355;SDS011;32066;49.474;11.106;2022-12-15T11:07:27;39.72;;;24.77;;
46355;SDS011;32066;49.474;11.106;2022-12-15T11:10:13;42.53;;;25.73;;
46355;SDS011;32066;49.474;11.106;2022-12-15T11:12:43;43.10;;;26.08;;
46355;SDS011;32066;49.474;11.106;2022-12-15T11:15:36;42.90;;;25.13;;
46355;SDS011;32066;49.474;11.106;2022-12-15T11:18:07;43.45;;;25.48;;
46355;SDS011;32066;49.474;11.106;2022-12-15T11:23:10;41.88;;;23.85;;
46355;SDS011;32066;49.474;11.106;2022-12-15T11:25:45;42.38;;;24.65;;
46355;SDS011;32066;49.474;11.106;2022-12-15T11:28:17;42.03;;;24.80;;
46355;SDS011;32066;49.474;11.106;2022-12-15T11:30:49;35.25;;;20.52;;
46355;SDS011;32066;49.474;11.106;2022-12-15T11:33:21;36.45;;;21.58;;
46355;SDS011;32066;49.474;11.106;2022-12-15T11:35:52;40.05;;;22.63;;
46355;SDS011;32066;49.474;11.106;2022-12-15T11:38:28;40.17;;;23.88;;
46355;SDS011;32066;49.474;11.106;2022-12-15T11:41:02;37.58;;;23.92;;
46355;SDS011;32066;49.474;11.106;2022-12-15T11:43:48;41.58;;;23.45;;
46355;SDS011;32066;49.474;11.106;2022-12-15T11:46:26;37.58;;;23.35;;
46355;SDS011;32066;49.474;11.106;2022-12-15T11:49:06;39.95;;;24.88;;
46355;SDS011;32066;49.474;11.106;2022-12-15T11:51:55;40.58;;;23.80;;
46355;SDS011;32066;49.474;11.106;2022-12-15T11:54:28;37.88;;;22.90;;
46355;SDS011;32066;49.474;11.106;2022-12-15T11:57:06;38.67;;;23.25;;
46355;SDS011;32066;49.474;11.106;2022-12-15T11:59:54;36.97;;;22.27;;
46355;SDS011;32066;49.474;11.106;2022-12-15T12:02:42;36.83;;;22.42;;
46355;SDS011;32066;49.474;11.106;2022-12-15T12:05:21;41.53;;;23.13;;
46355;SDS011;32066;49.474;11.106;2022-12-15T12:07:56;35.88;;;22.60;;
46355;SDS011;32066;49.474;11.106;2022-12-15T12:10:34;35.83;;;22.77;;
46355;SDS011;32066;49.474;11.106;2022-12-15T12:13:10;39.05;;;22.42;;
46355;SDS011;32066;49.474;11.106;2022-12-15T12:15:46;36.83;;;22.77;;
46355;SDS011;32066;49.474;11.106;2022-12-15T12:18:18;37.58;;;22.77;;
46355;SDS011;32066;49.474;11.106;2022-12-15T12:20:48;37.88;;;23.65;;
46355;SDS011;32066;49.474;11.106;2022-12-15T12:23:19;38.15;;;23.33;;
46355;SDS011;32066;49.474;11.106;2022-12-15T12:25:54;37.65;;;23.27;;
46355;SDS011;32066;49.474;11.106;2022-12-15T12:28:26;39.55;;;23.90;;
46355;SDS011;32066;49.474;11.106;2022-12-15T12:30:59;37.60;;;23.08;;
46355;SDS011;32066;49.474;11.106;2022-12-15T12:33:29;39.33;;;22.85;;
46355;SDS011;32066;49.474;11.106;2022-12-15T12:36:01;37.67;;;22.38;;
46355;SDS011;32066;49.474;11.106;2022-12-15T12:38:35;36.90;;;22.42;;
46355;SDS011;32066;49.474;11.106;2022-12-15T12:41:07;38.83;;;22.38;;
46355;SDS011;32066;49.474;11.106;2022-12-15T12:43:40;41.00;;;23.10;;
46355;SDS011;32066;49.474;11.106;2022-12-15T12:46:12;38.00;;;22.35;;
46355;SDS011;32066;49.474;11.106;2022-12-15T12:48:45;38.78;;;22.52;;
46355;SDS011;32066;49.474;11.106;2022-12-15T12:51:18;34.90;;;21.73;;
46355;SDS011;32066;49.474;11.106;2022-12-15T12:53:49;37.00;;;21.35;;
46355;SDS011;32066;49.474;11.106;2022-12-15T12:56:28;37.95;;;22.75;;
46355;SDS011;32066;49.474;11.106;2022-12-15T12:58:58;38.13;;;22.45;;
46355;SDS011;32066;49.474;11.106;2022-12-15T13:01:34;37.70;;;22.58;;
46355;SDS011;32066;49.474;11.106;2022-12-15T13:04:06;36.55;;;22.40;;
46355;SDS011;32066;49.474;11.106;2022-12-15T13:06:55;39.20;;;22.75;;
46355;SDS011;32066;49.474;11.106;2022-12-15T13:09:25;37.72;;;21.30;;
46355;SDS011;32066;49.474;11.106;2022-12-15T13:12:06;39.38;;;22.25;;
46355;SDS011;32066;49.474;11.106;2022-12-15T13:14:59;38.07;;;22.23;;
46355;SDS011;32066;49.474;11.106;2022-12-15T13:17:31;38.13;;;22.05;;
46355;SDS011;32066;49.474;11.106;2022-12-15T13:20:15;35.88;;;21.17;;
46355;SDS011;32066;49.474;11.106;2022-12-15T13:22:44;38.72;;;22.67;;
46355;SDS011;32066;49.474;11.106;2022-12-15T13:28:24;38.17;;;23.17;;
46355;SDS011;32066;49.474;11.106;2022-12-15T13:36:58;37.83;;;22.92;;
46355;SDS011;32066;49.474;11.106;2022-12-15T13:39:33;38.83;;;22.65;;
46355;SDS011;32066;49.474;11.106;2022-12-15T13:45:02;36.85;;;23.23;;
46355;SDS011;32066;49.474;11.106;2022-12-15T13:47:49;39.58;;;23.95;;
46355;SDS011;32066;49.474;11.106;2022-12-15T13:50:21;36.03;;;21.65;;
46355;SDS011;32066;49.474;11.106;2022-12-15T13:52:56;37.78;;;22.30;;
46355;SDS011;32066;49.474;11.106;2022-12-15T13:55:32;40.10;;;23.13;;
46355;SDS011;32066;49.474;11.106;2022-12-15T13:58:03;39.83;;;23.02;;
46355;SDS011;32066;49.474;11.106;2022-12-15T14:00:35;37.65;;;23.20;;
46355;SDS011;32066;49.474;11.106;2022-12-15T14:03:04;40.25;;;22.60;;
46355;SDS011;32066;49.474;11.106;2022-12-15T14:05:32;39.22;;;22.40;;
46355;SDS011;32066;49.474;11.106;2022-12-15T14:07:59;40.78;;;22.80;;
46355;SDS011;32066;49.474;11.106;2022-12-15T14:10:34;39.83;;;23.25;;
46355;SDS011;32066;49.474;11.106;2022-12-15T14:13:07;38.13;;;22.05;;
46355;SDS011;32066;49.474;11.106;2022-12-15T14:15:42;38.85;;;22.27;;
46355;SDS011;32066;49.474;11.106;2022-12-15T14:18:20;36.92;;;22.00;;
46355;SDS011;32066;49.474;11.106;2022-12-15T14:20:49;39.00;;;22.65;;
46355;SDS011;32066;49.474;11.106;2022-12-15T14:23:17;38.97;;;22.50;;
46355;SDS011;32066;49.474;11.106;2022-12-15T14:25:50;36.22;;;21.98;;
46355;SDS011;32066;49.474;11.106;2022-12-15T14:28:23;33.60;;;21.20;;
46355;SDS011;32066;49.474;11.106;2022-12-15T14:30:52;40.03;;;22.92;;
46355;SDS011;32066;49.474;11.106;2022-12-15T14:33:24;38.83;;;22.55;;
46355;SDS011;32066;49.474;11.106;2022-12-15T14:35:52;39.75;;;22.00;;
46355;SDS011;32066;49.474;11.106;2022-12-15T14:38:22;37.08;;;21.25;;
46355;SDS011;32066;49.474;11.106;2022-12-15T14:40:51;37.70;;;22.55;;
46355;SDS011;32066;49.474;11.106;2022-12-15T14:43:22;36.30;;;21.95;;
46355;SDS011;32066;49.474;11.106;2022-12-15T14:45:54;37.25;;;22.15;;
46355;SDS011;32066;49.474;11.106;2022-12-15T14:48:32;41.75;;;23.30;;
46355;SDS011;32066;49.474;11.106;2022-12-15T14:51:01;38.17;;;23.15;;
46355;SDS011;32066;49.474;11.106;2022-12-15T14:53:30;41.05;;;24.45;;
46355;SDS011;32066;49.474;11.106;2022-12-15T14:56:10;41.75;;;24.27;;
46355;SDS011;32066;49.474;11.106;2022-12-15T14:58:52;42.03;;;22.95;;
46355;SDS011;32066;49.474;11.106;2022-12-15T15:01:24;39.33;;;23.55;;
46355;SDS011;32066;49.474;11.106;2022-12-15T15:03:57;39.83;;;23.00;;
46355;SDS011;32066;49.474;11.106;2022-12-15T15:06:29;38.20;;;22.13;;
46355;SDS011;32066;49.474;11.106;2022-12-15T15:09:18;37.63;;;22.88;;